createdAt,value
2023-01-02T00:01:03.987Z,-2.71
2023-01-02T00:03:31.467Z,-2.69
2023-01-02T00:05:58.414Z,-2.69
2023-01-02T00:08:25.161Z,-2.71
2023-01-02T00:10:53.146Z,-2.73
2023-01-02T00:13:20.457Z,-2.73
2023-01-02T00:15:47.205Z,-2.71
2023-01-02T00:18:16.551Z,-2.69
2023-01-02T00:20:43.219Z,-2.67
2023-01-02T00:23:09.939Z,-2.69
2023-01-02T00:25:36.700Z,-2.72
2023-01-02T00:28:03.788Z,-2.73
2023-01-02T00:30:37.671Z,-2.70
2023-01-02T00:33:05.890Z,-2.66
2023-01-02T00:35:33.116Z,-2.60
2023-01-02T00:38:00.212Z,-2.57
2023-01-02T00:40:27.061Z,-2.55
2023-01-02T00:42:56.007Z,-2.49
2023-01-02T00:45:22.704Z,-2.46
2023-01-02T00:47:49.431Z,-2.41
2023-01-02T00:50:16.233Z,-2.34
2023-01-02T00:52:42.933Z,-2.29
2023-01-02T00:55:09.818Z,-2.21
2023-01-02T00:57:37.266Z,-2.17
2023-01-02T01:00:07.546Z,-2.16
2023-01-02T01:02:34.379Z,-2.16
2023-01-02T01:05:01.081Z,-2.13
2023-01-02T01:07:29.461Z,-2.12
2023-01-02T01:09:56.147Z,-2.07
2023-01-02T01:12:22.953Z,-2.03
2023-01-02T01:14:49.684Z,-1.96
2023-01-02T01:17:16.369Z,-1.92
2023-01-02T01:19:43.098Z,-1.83
2023-01-02T01:22:09.783Z,-1.79
2023-01-02T01:24:36.448Z,-1.72
2023-01-02T01:27:03.132Z,-1.68
2023-01-02T01:29:29.792Z,-1.62
2023-01-02T01:31:56.518Z,-1.57
2023-01-02T01:34:23.255Z,-1.52
2023-01-02T01:36:50.003Z,-1.47
2023-01-02T01:39:16.722Z,-1.44
2023-01-02T01:41:43.486Z,-1.41
2023-01-02T01:44:58.468Z,-1.40
2023-01-02T01:47:40.652Z,-1.36
2023-01-02T01:50:07.264Z,-1.34
2023-01-02T01:52:36.305Z,-1.31
2023-01-02T01:55:23.599Z,-1.29
2023-01-02T01:57:59.312Z,-1.25
2023-01-02T02:00:26.013Z,-1.22
2023-01-02T02:02:58.942Z,-1.17
2023-01-02T02:05:30.638Z,-1.12
2023-01-02T02:08:21.739Z,-1.07
2023-01-02T02:10:48.743Z,-1.02
2023-01-02T02:13:15.538Z,-0.97
2023-01-02T02:15:44.881Z,-0.91
2023-01-02T02:18:29.400Z,-0.86
2023-01-02T02:21:06.975Z,-0.83
2023-01-02T02:24:06.491Z,-0.77
2023-01-02T02:26:55.092Z,-0.71
2023-01-02T02:29:49.635Z,-0.66
2023-01-02T02:32:42.219Z,-0.61
2023-01-02T02:35:11.498Z,-0.55
2023-01-02T02:37:45.869Z,-0.49
2023-01-02T02:40:25.395Z,-0.44
2023-01-02T02:43:40.174Z,-0.37
2023-01-02T02:46:26.694Z,-0.31
2023-01-02T02:49:16.150Z,-0.27
2023-01-02T02:51:49.509Z,-0.21
2023-01-02T02:54:23.258Z,-0.15
2023-01-02T02:56:53.270Z,-0.11
2023-01-02T02:59:20.774Z,-0.06
2023-01-02T03:01:47.562Z,-0.02
2023-01-02T03:04:21.938Z,0.04
2023-01-02T03:07:36.513Z,0.08
2023-01-02T03:10:09.090Z,0.14
2023-01-02T03:12:53.753Z,0.21
2023-01-02T03:15:45.497Z,0.28
2023-01-02T03:18:16.939Z,0.34
2023-01-02T03:20:58.949Z,0.40
2023-01-02T03:23:31.199Z,0.47
2023-01-02T03:25:59.469Z,0.55
2023-01-02T03:28:27.285Z,0.63
2023-01-02T03:30:57.850Z,0.71
2023-01-02T03:33:27.834Z,0.78
2023-01-02T03:35:59.806Z,0.85
2023-01-02T03:38:34.384Z,0.91
2023-01-02T03:41:07.283Z,0.97
2023-01-02T03:43:37.142Z,1.02
2023-01-02T03:46:15.815Z,1.07
2023-01-02T03:49:00.685Z,1.11
2023-01-02T03:51:27.420Z,1.15
2023-01-02T03:53:54.627Z,1.18
2023-01-02T03:56:27.619Z,1.23
2023-01-02T03:59:09.147Z,1.27
2023-01-02T04:01:41.146Z,1.32
2023-01-02T04:04:36.394Z,1.39
2023-01-02T04:07:10.733Z,1.43
2023-01-02T04:09:39.866Z,1.50
2023-01-02T04:12:18.104Z,1.56
2023-01-02T04:14:52.753Z,1.61
2023-01-02T04:17:22.757Z,1.65
2023-01-02T04:20:13.277Z,1.70
2023-01-02T04:22:47.619Z,1.75
2023-01-02T04:25:17.350Z,1.79
2023-01-02T04:28:04.140Z,1.83
2023-01-02T04:30:35.318Z,1.88
2023-01-02T04:33:09.547Z,1.92
2023-01-02T04:35:36.379Z,1.96
2023-01-02T04:38:11.100Z,1.99
2023-01-02T04:40:38.482Z,2.00
2023-01-02T04:43:22.142Z,2.02
2023-01-02T04:45:49.621Z,2.05
2023-01-02T04:48:17.137Z,2.07
2023-01-02T04:50:45.234Z,2.06
2023-01-02T04:53:12.369Z,2.07
2023-01-02T04:55:39.421Z,2.08
2023-01-02T04:58:06.465Z,2.09
2023-01-02T05:00:35.821Z,2.11
2023-01-02T05:03:03.611Z,2.12
2023-01-02T05:05:30.913Z,2.13
2023-01-02T05:08:00.637Z,2.16
2023-01-02T05:10:27.305Z,2.20
2023-01-02T05:12:54.108Z,2.21
2023-01-02T05:15:20.773Z,2.24
2023-01-02T05:17:47.421Z,2.24
2023-01-02T05:20:14.192Z,2.24
2023-01-02T05:23:01.499Z,2.27
2023-01-02T05:25:31.752Z,2.27
2023-01-02T05:27:58.491Z,2.28
2023-01-02T05:30:25.569Z,2.29
2023-01-02T05:32:52.383Z,2.31
2023-01-02T05:35:19.127Z,2.32
2023-01-02T05:37:45.876Z,2.32
2023-01-02T05:40:12.923Z,2.34
2023-01-02T05:42:39.690Z,2.36
2023-01-02T05:45:07.037Z,2.38
2023-01-02T05:47:33.984Z,2.42
2023-01-02T05:50:00.768Z,2.45
2023-01-02T05:52:27.472Z,2.48
2023-01-02T05:54:54.207Z,2.51
2023-01-02T05:57:20.936Z,2.53
2023-01-02T05:59:47.563Z,2.54
2023-01-02T06:02:14.359Z,2.57
2023-01-02T06:04:41.089Z,2.59
2023-01-02T06:07:07.964Z,2.60
2023-01-02T06:09:34.633Z,2.64
2023-01-02T06:12:01.447Z,2.67
2023-01-02T06:14:28.089Z,2.68
2023-01-02T06:16:54.844Z,2.71
2023-01-02T06:19:22.030Z,2.74
2023-01-02T06:21:48.673Z,2.76
2023-01-02T06:24:15.420Z,2.77
2023-01-02T06:26:42.084Z,2.81
2023-01-02T06:29:09.302Z,2.84
2023-01-02T06:31:39.708Z,2.85
2023-01-02T06:34:06.619Z,2.88
2023-01-02T06:36:34.412Z,2.91
2023-01-02T06:39:01.579Z,2.94
2023-01-02T06:41:28.443Z,2.98
2023-01-02T06:43:55.422Z,3.03
2023-01-02T06:46:23.274Z,3.04
2023-01-02T06:48:50.413Z,3.06
2023-01-02T06:51:22.375Z,3.07
2023-01-02T06:53:49.614Z,3.10
2023-01-02T06:56:18.366Z,3.11
2023-01-02T06:58:45.032Z,3.13
2023-01-02T07:01:19.673Z,3.16
2023-01-02T07:03:46.871Z,3.17
2023-01-02T07:06:16.966Z,3.18
2023-01-02T07:08:44.090Z,3.19
2023-01-02T07:11:15.190Z,3.20
2023-01-02T07:13:43.500Z,3.24
2023-01-02T07:16:13.732Z,3.26
2023-01-02T07:18:41.767Z,3.28
2023-01-02T07:21:10.334Z,3.30
2023-01-02T07:23:37.941Z,3.31
2023-01-02T07:26:06.689Z,3.35
2023-01-02T07:28:34.579Z,3.36
2023-01-02T07:31:04.100Z,3.37
2023-01-02T07:33:32.187Z,3.36
2023-01-02T07:36:08.423Z,3.38
2023-01-02T07:38:35.368Z,3.39
2023-01-02T07:41:02.060Z,3.39
2023-01-02T07:43:28.750Z,3.40
2023-01-02T07:45:55.545Z,3.44
2023-01-02T07:48:22.254Z,3.45
2023-01-02T07:50:49.030Z,3.48
2023-01-02T07:53:15.867Z,3.50
2023-01-02T07:55:42.532Z,3.52
2023-01-02T07:58:09.228Z,3.53
2023-01-02T08:00:35.895Z,3.56
2023-01-02T08:03:02.551Z,3.55
2023-01-02T08:05:29.277Z,3.59
2023-01-02T08:07:55.965Z,3.60
2023-01-02T08:10:23.177Z,3.59
2023-01-02T08:12:49.898Z,3.62
2023-01-02T08:15:16.701Z,3.63
2023-01-02T08:17:43.435Z,3.64
2023-01-02T08:20:11.367Z,3.66
2023-01-02T08:22:38.281Z,3.66
2023-01-02T08:25:05.501Z,3.68
2023-01-02T08:27:32.240Z,3.68
2023-01-02T08:29:59.049Z,3.68
2023-01-02T08:32:25.722Z,3.69
2023-01-02T08:34:52.388Z,3.70
2023-01-02T08:37:19.839Z,3.70
2023-01-02T08:39:46.589Z,3.72
2023-01-02T08:42:13.282Z,3.72
2023-01-02T08:44:40.395Z,3.75
2023-01-02T08:47:07.106Z,3.79
2023-01-02T08:49:33.797Z,3.82
2023-01-02T08:52:00.490Z,3.84
2023-01-02T08:54:27.235Z,3.86
2023-01-02T08:56:53.979Z,3.88
2023-01-02T08:59:23.840Z,3.90
2023-01-02T09:01:50.749Z,3.90
2023-01-02T09:04:18.160Z,3.92
2023-01-02T09:06:45.536Z,3.91
2023-01-02T09:09:14.577Z,3.93
2023-01-02T09:11:50.923Z,3.94
2023-01-02T09:14:19.597Z,3.94
2023-01-02T09:16:46.345Z,3.94
2023-01-02T09:19:13.092Z,3.95
2023-01-02T09:21:39.944Z,3.96
2023-01-02T09:24:07.576Z,3.98
2023-01-02T09:26:34.800Z,4.01
2023-01-02T09:29:01.463Z,4.02
2023-01-02T09:31:28.305Z,4.06
2023-01-02T09:33:56.446Z,4.08
2023-01-02T09:36:23.383Z,4.11
2023-01-02T09:38:58.606Z,4.14
2023-01-02T09:41:46.344Z,4.15
2023-01-02T09:44:27.108Z,4.18
2023-01-02T09:47:00.781Z,4.19
2023-01-02T09:49:52.485Z,4.23
2023-01-02T09:52:23.888Z,4.23
2023-01-02T09:54:50.797Z,4.24
2023-01-02T09:57:29.887Z,4.26
2023-01-02T10:00:06.490Z,4.30
2023-01-02T10:02:55.606Z,4.32
2023-01-02T10:05:41.020Z,4.32
2023-01-02T10:08:43.627Z,4.32
2023-01-02T10:11:26.773Z,4.33
2023-01-02T10:16:51.238Z,4.33
2023-01-02T10:19:40.620Z,4.33
2023-01-02T10:22:13.426Z,4.36
2023-01-02T10:25:00.179Z,4.39
2023-01-02T10:27:32.880Z,4.41
2023-01-02T10:30:25.900Z,4.44
2023-01-02T10:33:02.740Z,4.48
2023-01-02T10:35:43.549Z,4.49
2023-01-02T10:38:18.656Z,4.51
2023-01-02T10:40:48.679Z,4.55
2023-01-02T10:43:15.745Z,4.58
2023-01-02T10:45:43.185Z,4.59
2023-01-02T10:48:13.600Z,4.61
2023-01-02T10:50:45.090Z,4.63
2023-01-02T10:53:41.121Z,4.64
2023-01-02T10:56:18.404Z,4.66
2023-01-02T10:58:47.539Z,4.67
2023-01-02T11:01:18.681Z,4.67
2023-01-02T11:04:06.535Z,4.69
2023-01-02T11:06:39.382Z,4.70
2023-01-02T11:09:22.679Z,4.74
2023-01-02T11:11:52.335Z,4.75
2023-01-02T11:14:23.871Z,4.77
2023-01-02T11:16:51.163Z,4.78
2023-01-02T11:19:29.441Z,4.79
2023-01-02T11:21:57.293Z,4.81
2023-01-02T11:24:28.656Z,4.83
2023-01-02T11:26:56.367Z,4.84
2023-01-02T11:29:34.664Z,4.86
2023-01-02T11:32:03.770Z,4.87
2023-01-02T11:34:40.237Z,4.87
2023-01-02T11:37:17.477Z,4.86
2023-01-02T11:40:01.252Z,4.85
2023-01-02T11:43:02.265Z,4.87
2023-01-02T11:45:30.811Z,4.87
2023-01-02T11:48:01.954Z,4.87
2023-01-02T11:50:35.372Z,4.87
2023-01-02T11:53:04.186Z,4.89
2023-01-02T11:56:02.485Z,4.93
2023-01-02T11:58:39.399Z,4.94
2023-01-02T12:01:40.567Z,4.95
2023-01-02T12:04:07.599Z,4.96
2023-01-02T12:06:52.431Z,4.99
2023-01-02T12:10:00.572Z,5.03
2023-01-02T12:12:43.095Z,5.03
2023-01-02T12:15:45.069Z,5.03
2023-01-02T12:18:37.441Z,5.00
2023-01-02T12:21:12.948Z,5.01
2023-01-02T12:24:21.370Z,5.02
2023-01-02T12:27:08.243Z,5.03
2023-01-02T12:30:07.316Z,5.05
2023-01-02T12:32:52.454Z,5.07
2023-01-02T12:35:37.812Z,5.07
2023-01-02T12:38:07.901Z,5.10
2023-01-02T12:41:04.372Z,5.12
2023-01-02T12:43:37.911Z,5.12
2023-01-02T12:46:16.693Z,5.16
2023-01-02T12:49:16.530Z,5.16
2023-01-02T12:51:58.036Z,5.20
2023-01-02T12:54:45.804Z,5.21
2023-01-02T12:57:22.654Z,5.22
2023-01-02T13:00:20.344Z,5.23
2023-01-02T13:03:05.860Z,5.24
2023-01-02T13:05:39.629Z,5.23
2023-01-02T13:08:30.033Z,5.27
2023-01-02T13:11:01.768Z,5.27
2023-01-02T13:13:33.626Z,5.29
2023-01-02T13:16:20.725Z,5.29
2023-01-02T13:19:01.304Z,5.30
2023-01-02T13:22:08.535Z,5.28
2023-01-02T13:24:35.710Z,5.27
2023-01-02T13:27:03.964Z,5.27
2023-01-02T13:29:45.017Z,5.29
2023-01-02T13:32:13.981Z,5.29
2023-01-02T13:34:52.770Z,5.29
2023-01-02T13:37:23.685Z,5.30
2023-01-02T13:39:56.678Z,5.30
2023-01-02T13:42:43.799Z,5.30
2023-01-02T13:45:23.280Z,5.30
2023-01-02T13:48:03.412Z,5.29
2023-01-02T13:50:33.873Z,5.26
2023-01-02T13:53:26.623Z,5.25
2023-01-02T13:56:07.673Z,5.22
2023-01-02T13:58:47.830Z,5.21
2023-01-02T14:01:23.753Z,5.21
2023-01-02T14:04:13.364Z,5.21
2023-01-02T14:06:42.351Z,5.20
2023-01-02T14:09:12.005Z,5.19
2023-01-02T14:11:56.946Z,5.18
2023-01-02T14:14:48.465Z,5.18
2023-01-02T14:17:48.874Z,5.19
2023-01-02T14:20:18.565Z,5.20
2023-01-02T14:22:54.072Z,5.21
2023-01-02T14:25:21.901Z,5.19
2023-01-02T14:27:58.341Z,5.20
2023-01-02T14:30:36.009Z,5.19
2023-01-02T14:33:04.598Z,5.19
2023-01-02T14:35:35.928Z,5.21
2023-01-02T14:38:14.822Z,5.22
2023-01-02T14:40:43.016Z,5.22
2023-01-02T14:43:35.950Z,5.22
2023-01-02T14:46:21.299Z,5.22
2023-01-02T14:49:25.228Z,5.21
2023-01-02T14:52:12.868Z,5.19
2023-01-02T14:54:45.376Z,5.19
2023-01-02T14:57:34.460Z,5.16
2023-01-02T15:00:11.509Z,5.17
2023-01-02T15:02:44.608Z,5.16
2023-01-02T15:05:26.983Z,5.17
2023-01-02T15:07:58.280Z,5.16
2023-01-02T15:10:25.536Z,5.18
2023-01-02T15:13:09.041Z,5.17
2023-01-02T15:15:41.097Z,5.16
2023-01-02T15:18:32.574Z,5.17
2023-01-02T15:21:12.299Z,5.17
2023-01-02T15:23:44.053Z,5.15
2023-01-02T15:26:31.376Z,5.14
2023-01-02T15:29:05.431Z,5.12
2023-01-02T15:31:32.669Z,5.13
2023-01-02T15:34:00.759Z,5.13
2023-01-02T15:36:36.718Z,5.15
2023-01-02T15:39:18.336Z,5.13
2023-01-02T15:41:50.669Z,5.15
2023-01-02T15:44:48.684Z,5.16
2023-01-02T15:47:17.572Z,5.16
2023-01-02T15:49:48.202Z,5.16
2023-01-02T15:52:24.117Z,5.15
2023-01-02T15:54:52.580Z,5.15
2023-01-02T15:57:25.122Z,5.15
2023-01-02T15:59:52.083Z,5.15
2023-01-02T16:02:46.468Z,5.16
2023-01-02T16:05:16.097Z,5.17
2023-01-02T16:07:48.640Z,5.16
2023-01-02T16:10:21.608Z,5.16
2023-01-02T16:12:55.539Z,5.17
2023-01-02T16:15:28.473Z,5.18
2023-01-02T16:17:57.168Z,5.19
2023-01-02T16:20:26.732Z,5.19
2023-01-02T16:23:07.370Z,5.20
2023-01-02T16:25:43.339Z,5.18
2023-01-02T16:28:35.631Z,5.18
2023-01-02T16:31:20.169Z,5.18
2023-01-02T16:33:47.565Z,5.16
2023-01-02T16:36:14.247Z,5.16
2023-01-02T16:38:49.687Z,5.15
2023-01-02T16:41:36.629Z,5.15
2023-01-02T16:44:05.072Z,5.14
2023-01-02T16:46:31.784Z,5.13
2023-01-02T16:49:05.005Z,5.11
2023-01-02T16:51:32.486Z,5.12
2023-01-02T16:53:59.540Z,5.12
2023-01-02T16:56:26.359Z,5.13
2023-01-02T16:58:53.131Z,5.14
2023-01-02T17:01:22.763Z,5.14
2023-01-02T17:03:49.639Z,5.14
2023-01-02T17:06:18.832Z,5.14
2023-01-02T17:08:45.667Z,5.15
2023-01-02T17:11:16.000Z,5.15
2023-01-02T17:13:42.693Z,5.16
2023-01-02T17:16:09.527Z,5.17
2023-01-02T17:18:36.353Z,5.17
2023-01-02T17:21:02.997Z,5.15
2023-01-02T17:23:29.662Z,5.15
2023-01-02T17:25:56.396Z,5.16
2023-01-02T17:28:23.162Z,5.16
2023-01-02T17:30:50.097Z,5.15
2023-01-02T17:33:17.842Z,5.16
2023-01-02T17:35:47.782Z,5.16
2023-01-02T17:38:15.157Z,5.16
2023-01-02T17:40:41.860Z,5.17
2023-01-02T17:43:08.671Z,5.15
2023-01-02T17:45:35.409Z,5.16
2023-01-02T17:48:10.072Z,5.15
2023-01-02T17:50:38.066Z,5.16
2023-01-02T17:53:04.820Z,5.15
2023-01-02T17:55:31.583Z,5.10
2023-01-02T17:58:00.475Z,5.07
2023-01-02T18:00:27.791Z,5.08
2023-01-02T18:02:54.739Z,5.08
2023-01-02T18:05:22.698Z,5.10
2023-01-02T18:07:49.521Z,5.10
2023-01-02T18:10:20.142Z,5.10
2023-01-02T18:12:49.252Z,5.11
2023-01-02T18:15:20.196Z,5.12
2023-01-02T18:17:47.491Z,5.11
2023-01-02T18:20:17.560Z,5.10
2023-01-02T18:22:49.537Z,5.10
2023-01-02T18:25:25.033Z,5.10
2023-01-02T18:27:58.123Z,5.10
2023-01-02T18:30:26.323Z,5.09
2023-01-02T18:33:14.664Z,5.10
2023-01-02T18:35:58.432Z,5.11
2023-01-02T18:38:35.842Z,5.10
2023-01-02T18:41:16.203Z,5.10
2023-01-02T18:43:44.466Z,5.10
2023-01-02T18:46:15.450Z,5.11
2023-01-02T18:48:42.653Z,5.11
2023-01-02T18:51:24.137Z,5.10
2023-01-02T18:53:57.081Z,5.10
2023-01-02T18:56:27.147Z,5.10
2023-01-02T18:59:16.822Z,5.12
2023-01-02T19:01:50.571Z,5.10
2023-01-02T19:04:30.441Z,5.10
2023-01-02T19:07:01.425Z,5.09
2023-01-02T19:09:34.106Z,5.08
2023-01-02T19:12:41.135Z,5.09
2023-01-02T19:15:30.987Z,5.06
2023-01-02T19:18:15.873Z,5.03
2023-01-02T19:20:44.347Z,4.99
2023-01-02T19:23:22.945Z,4.99
2023-01-02T19:25:50.227Z,4.98
2023-01-02T19:28:29.979Z,4.96
2023-01-02T19:30:56.799Z,4.94
2023-01-02T19:33:29.485Z,4.93
2023-01-02T19:36:00.022Z,4.92
2023-01-02T19:38:29.439Z,4.90
2023-01-02T19:40:56.497Z,4.88
2023-01-02T19:43:23.300Z,4.87
2023-01-02T19:45:50.041Z,4.84
2023-01-02T19:48:18.455Z,4.81
2023-01-02T19:50:45.506Z,4.80
2023-01-02T19:53:12.291Z,4.73
2023-01-02T19:55:38.995Z,4.73
2023-01-02T19:58:05.760Z,4.70
2023-01-02T20:00:33.017Z,4.67
2023-01-02T20:02:59.988Z,4.63
2023-01-02T20:05:28.741Z,4.60
2023-01-02T20:07:57.853Z,4.56
2023-01-02T20:10:25.524Z,4.52
2023-01-02T20:12:52.197Z,4.49
2023-01-02T20:15:24.695Z,4.46
2023-01-02T20:17:52.884Z,4.40
2023-01-02T20:20:22.673Z,4.35
2023-01-02T20:22:51.703Z,4.28
2023-01-02T20:25:24.431Z,4.23
2023-01-02T20:27:52.882Z,4.19
2023-01-02T20:30:24.290Z,4.14
2023-01-02T20:32:52.503Z,4.11
2023-01-02T20:35:19.282Z,4.03
2023-01-02T20:37:46.005Z,4.00
2023-01-02T20:40:12.799Z,3.92
2023-01-02T20:42:39.550Z,3.88
2023-01-02T20:45:07.240Z,3.82
2023-01-02T20:47:36.402Z,3.75
2023-01-02T20:50:03.686Z,3.70
2023-01-02T20:52:30.350Z,3.69
2023-01-02T20:54:57.132Z,3.67
2023-01-02T20:57:24.149Z,3.60
2023-01-02T20:59:50.987Z,3.58
2023-01-02T21:02:17.905Z,3.55
2023-01-02T21:04:44.623Z,3.52
2023-01-02T21:07:11.393Z,3.48
2023-01-02T21:09:38.090Z,3.44
2023-01-02T21:12:24.755Z,3.41
2023-01-02T21:14:51.424Z,3.36
2023-01-02T21:17:18.090Z,3.28
2023-01-02T21:19:44.770Z,3.23
2023-01-02T21:22:11.412Z,3.20
2023-01-02T21:24:38.067Z,3.15
2023-01-02T21:27:10.943Z,3.12
2023-01-02T21:29:39.710Z,3.08
2023-01-02T21:32:06.455Z,3.04
2023-01-02T21:34:33.131Z,2.99
2023-01-02T21:37:00.127Z,2.96
2023-01-02T21:39:26.827Z,2.90
2023-01-02T21:42:12.234Z,2.84
2023-01-02T21:44:38.945Z,2.72
2023-01-02T21:47:05.693Z,2.65
2023-01-02T21:49:32.654Z,2.59
2023-01-02T21:52:00.244Z,2.51
2023-01-02T21:54:27.541Z,2.37
2023-01-02T21:56:54.263Z,2.30
2023-01-02T21:59:25.247Z,2.27
2023-01-02T22:01:56.567Z,2.22
2023-01-02T22:04:23.505Z,2.21
2023-01-02T22:07:30.151Z,2.20
2023-01-02T22:09:37.089Z,2.18
2023-01-02T22:12:07.129Z,2.16
2023-01-02T22:14:36.522Z,1.99
2023-01-02T22:17:06.645Z,1.92
2023-01-02T22:19:33.819Z,1.92
2023-01-02T22:22:02.349Z,1.88
2023-01-02T22:24:29.656Z,1.87
2023-01-02T22:26:58.339Z,1.86
2023-01-02T22:29:51.367Z,1.83
2023-01-02T22:32:14.948Z,1.69
2023-01-02T22:34:44.269Z,1.63
2023-01-02T22:37:14.564Z,1.59
2023-01-02T22:39:45.317Z,1.47
2023-01-02T22:42:59.570Z,1.36
2023-01-02T22:45:27.667Z,1.26
2023-01-02T22:48:00.912Z,1.27
2023-01-02T22:50:31.122Z,1.30
2023-01-02T22:52:58.081Z,1.35
2023-01-02T22:55:24.814Z,1.37
2023-01-02T22:57:52.146Z,1.31
2023-01-02T23:00:22.518Z,1.25
2023-01-02T23:02:50.129Z,1.24
2023-01-02T23:05:19.014Z,1.20
2023-01-02T23:07:47.018Z,1.11
2023-01-02T23:10:14.180Z,1.09
2023-01-02T23:12:40.912Z,1.10
2023-01-02T23:15:09.246Z,1.04
2023-01-02T23:17:54.706Z,1.05
2023-01-02T23:20:21.605Z,1.00
2023-01-02T23:22:48.316Z,0.99
2023-01-02T23:25:15.588Z,0.92
2023-01-02T23:27:42.777Z,0.88
2023-01-02T23:30:10.159Z,0.80
2023-01-02T23:32:36.924Z,0.73
2023-01-02T23:35:04.405Z,0.73
2023-01-02T23:37:31.152Z,0.79
2023-01-02T23:39:57.880Z,0.78
2023-01-02T23:42:24.527Z,0.80
2023-01-02T23:44:51.210Z,0.79
2023-01-02T23:47:19.444Z,0.77
2023-01-02T23:49:46.506Z,0.80
2023-01-02T23:52:13.435Z,0.82
2023-01-02T23:54:40.527Z,0.83
2023-01-02T23:57:10.236Z,0.82
2023-01-02T23:59:37.421Z,0.85
